PWSweather.com
Personal Weather Stations
Station Observations
DEKREUPEL
Wsv De Kreupel, AndijkNL 1619 JV

Wsv De KreupelAndijkNL 1619 JV

Lat: 52.7417364, Lon: 5.1809356

Elevation: 33

Station Type: Rainwise MKiii LR

Latest ConditionsUpdated 10:19:00 AM GMT+01:01 Saturday, Sep 23, 2017
Currently Today's Max Today's Min Today's Average
Temperature 60.4°F15.8°C 60.7°F15.9°C 51.2°F10.7°C 53.9°F12.2°C
Dew Point 88.4°F31.3°C 88.6°F31.4°C 78.0°F25.6°C 81.1°F27.3°C
Winds 3.4 mph W5.5 kmh W 4.3 mph SW6.9 kmh SW - 2.6 mph 4.2 kmh
Wind Gusts 4.4 mph7.1 kmh 4.9 mph7.9 kmh - -
Humidity - 0% 0% 0%
Pressure 30.37 in1028.4 mb 30.37 in1028.4 mb 30.32 in1026.8 mb -
Hour Temp Dew Point Humidity Winds Wind Gusts Pressure Precip Precip Rate Daily Precip Total
10:19 AM 60.4°F15.8°C 88.4°F31.3°C - 3.4 mph W5.5 kmh W 4.4 mph7.1 kmh 30.37 in1028.4 mb 0.00 in0.0 mm 0.00 in0.0 mm 0.00 in0.0 mm
10:14 AM 60.7°F15.9°C 88.6°F31.4°C - 0.7 mph SSW1.1 kmh SSW 1.6 mph2.6 kmh 30.37 in1028.4 mb 0.00 in0.0 mm 0.00 in0.0 mm 0.00 in0.0 mm
10:09 AM 60.6°F15.9°C 88.6°F31.4°C - 2.5 mph SSW4.0 kmh SSW 3.8 mph6.1 kmh 30.37 in1028.4 mb 0.00 in0.0 mm 0.00 in0.0 mm 0.00 in0.0 mm
10:04 AM 60.6°F15.9°C 88.6°F31.4°C - 2.1 mph S3.4 kmh S 3.3 mph5.3 kmh 30.37 in1028.4 mb 0.00 in0.0 mm 0.00 in0.0 mm 0.00 in0.0 mm
09:59 AM 60.2°F15.7°C 88.2°F31.2°C - 1.5 mph SE2.4 kmh SE 3.6 mph5.8 kmh 30.37 in1028.4 mb 0.00 in0.0 mm 0.00 in0.0 mm 0.00 in0.0 mm
09:54 AM 59.6°F15.3°C 87.4°F30.8°C - 1.8 mph SSW2.9 kmh SSW 2.5 mph4.0 kmh 30.37 in1028.4 mb 0.00 in0.0 mm 0.00 in0.0 mm 0.00 in0.0 mm
09:49 AM 59.2°F15.1°C 87.0°F30.6°C - 2.3 mph SSW3.7 kmh SSW 3.9 mph6.3 kmh 30.37 in1028.4 mb 0.00 in0.0 mm 0.00 in0.0 mm 0.00 in0.0 mm
09:44 AM 58.7°F14.8°C 86.5°F30.3°C - 2.9 mph SW4.7 kmh SW 3.8 mph6.1 kmh 30.37 in1028.4 mb 0.00 in0.0 mm 0.00 in0.0 mm 0.00 in0.0 mm
09:39 AM 58.8°F14.9°C 86.5°F30.3°C - 3.9 mph WSW6.3 kmh WSW 4.7 mph7.6 kmh 30.36 in1028.1 mb 0.00 in0.0 mm 0.00 in0.0 mm 0.00 in0.0 mm
09:34 AM 59.1°F15.1°C 86.9°F30.5°C - 3.4 mph SW5.5 kmh SW 4.6 mph7.4 kmh 30.36 in1028.1 mb 0.00 in0.0 mm 0.00 in0.0 mm 0.00 in0.0 mm
09:29 AM 59.2°F15.1°C 86.9°F30.5°C - 1.8 mph SW2.9 kmh SW 2.4 mph3.9 kmh 30.36 in1028.1 mb 0.00 in0.0 mm 0.00 in0.0 mm 0.00 in0.0 mm
09:24 AM 59.3°F15.2°C 87.1°F30.6°C - 2.8 mph SW4.5 kmh SW 3.0 mph4.8 kmh 30.36 in1028.1 mb 0.00 in0.0 mm 0.00 in0.0 mm 0.00 in0.0 mm
09:19 AM 59.7°F15.4°C 87.5°F30.8°C - 1.6 mph SW2.6 kmh SW 1.8 mph2.9 kmh 30.36 in1028.1 mb 0.00 in0.0 mm 0.00 in0.0 mm 0.00 in0.0 mm
09:14 AM 59.8°F15.4°C 87.7°F30.9°C - 1.6 mph SSW2.6 kmh SSW 2.4 mph3.9 kmh 30.36 in1028.1 mb 0.00 in0.0 mm 0.00 in0.0 mm 0.00 in0.0 mm
09:09 AM 59.4°F15.2°C 87.3°F30.7°C - 1.5 mph SSW2.4 kmh SSW 2.4 mph3.9 kmh 30.36 in1028.1 mb 0.00 in0.0 mm 0.00 in0.0 mm 0.00 in0.0 mm
09:04 AM 58.9°F14.9°C 86.6°F30.3°C - 2.8 mph SSW4.5 kmh SSW 3.4 mph5.5 kmh 30.36 in1028.1 mb 0.00 in0.0 mm 0.00 in0.0 mm 0.00 in0.0 mm
08:59 AM 58.2°F14.6°C 85.9°F29.9°C - 1.1 mph SSW1.8 kmh SSW 2.1 mph3.4 kmh 30.36 in1028.1 mb 0.00 in0.0 mm 0.00 in0.0 mm 0.00 in0.0 mm
08:54 AM 58.0°F14.4°C 85.6°F29.8°C - 2.6 mph SSW4.2 kmh SSW 3.1 mph5.0 kmh 30.36 in1028.1 mb 0.00 in0.0 mm 0.00 in0.0 mm 0.00 in0.0 mm
08:49 AM 58.0°F14.4°C 85.7°F29.8°C - 1.6 mph SSW2.6 kmh SSW 2.4 mph3.9 kmh 30.36 in1028.1 mb 0.00 in0.0 mm 0.00 in0.0 mm 0.00 in0.0 mm
08:44 AM 57.2°F14.0°C 84.8°F29.3°C - 1.5 mph SSW2.4 kmh SSW 2.2 mph3.5 kmh 30.36 in1028.1 mb 0.00 in0.0 mm 0.00 in0.0 mm 0.00 in0.0 mm
08:39 AM 56.5°F13.6°C 84.0°F28.9°C - 2.4 mph SW3.9 kmh SW 2.9 mph4.7 kmh 30.36 in1028.1 mb 0.00 in0.0 mm 0.00 in0.0 mm 0.00 in0.0 mm
08:34 AM 56.6°F13.7°C 84.1°F28.9°C - 3.7 mph SW6.0 kmh SW 4.3 mph6.9 kmh 30.36 in1028.1 mb 0.00 in0.0 mm 0.00 in0.0 mm 0.00 in0.0 mm
08:29 AM 57.0°F13.9°C 84.6°F29.2°C - 3.0 mph SW4.8 kmh SW 3.7 mph6.0 kmh 30.36 in1028.1 mb 0.00 in0.0 mm 0.00 in0.0 mm 0.00 in0.0 mm
08:24 AM 57.0°F13.9°C 84.4°F29.1°C - 1.8 mph SSW2.9 kmh SSW 2.4 mph3.9 kmh 30.36 in1028.1 mb 0.00 in0.0 mm 0.00 in0.0 mm 0.00 in0.0 mm
08:19 AM 56.5°F13.6°C 83.9°F28.8°C - 2.2 mph SSW3.5 kmh SSW 3.0 mph4.8 kmh 30.36 in1028.1 mb 0.00 in0.0 mm 0.00 in0.0 mm 0.00 in0.0 mm
08:14 AM 56.1°F13.4°C 83.4°F28.6°C - 2.0 mph SSW3.2 kmh SSW 2.7 mph4.3 kmh 30.36 in1028.1 mb 0.00 in0.0 mm 0.00 in0.0 mm 0.00 in0.0 mm
08:09 AM 55.7°F13.2°C 83.0°F28.3°C - 2.2 mph SSW3.5 kmh SSW 2.9 mph4.7 kmh 30.36 in1028.1 mb 0.00 in0.0 mm 0.00 in0.0 mm 0.00 in0.0 mm
08:04 AM 55.3°F12.9°C 82.6°F28.1°C - 2.0 mph SSW3.2 kmh SSW 2.6 mph4.2 kmh 30.35 in1027.8 mb 0.00 in0.0 mm 0.00 in0.0 mm 0.00 in0.0 mm
07:59 AM 55.1°F12.8°C 82.4°F28.0°C - 3.1 mph SSW5.0 kmh SSW 3.8 mph6.1 kmh 30.35 in1027.8 mb 0.00 in0.0 mm 0.00 in0.0 mm 0.00 in0.0 mm
07:54 AM 55.2°F12.9°C 82.5°F28.1°C - 3.0 mph SSW4.8 kmh SSW 3.9 mph6.3 kmh 30.35 in1027.8 mb 0.00 in0.0 mm 0.00 in0.0 mm 0.00 in0.0 mm
07:49 AM 55.0°F12.8°C 82.3°F27.9°C - 3.1 mph SSW5.0 kmh SSW 3.5 mph5.6 kmh 30.35 in1027.8 mb 0.00 in0.0 mm 0.00 in0.0 mm 0.00 in0.0 mm
07:44 AM 54.6°F12.6°C 81.9°F27.7°C - 2.2 mph SW3.5 kmh SW 3.0 mph4.8 kmh 30.35 in1027.8 mb 0.00 in0.0 mm 0.00 in0.0 mm 0.00 in0.0 mm
07:39 AM 54.2°F12.3°C 81.4°F27.4°C - 3.4 mph SW5.5 kmh SW 4.2 mph6.8 kmh 30.35 in1027.8 mb 0.00 in0.0 mm 0.00 in0.0 mm 0.00 in0.0 mm
07:34 AM 53.7°F12.1°C 80.8°F27.1°C - 3.4 mph SW5.5 kmh SW 4.1 mph6.6 kmh 30.35 in1027.8 mb 0.00 in0.0 mm 0.00 in0.0 mm 0.00 in0.0 mm
07:29 AM 53.4°F11.9°C 80.5°F26.9°C - 2.6 mph SW4.2 kmh SW 3.0 mph4.8 kmh 30.35 in1027.8 mb 0.00 in0.0 mm 0.00 in0.0 mm 0.00 in0.0 mm
07:24 AM 53.1°F11.7°C 80.2°F26.8°C - 3.4 mph SW5.5 kmh SW 4.0 mph6.4 kmh 30.35 in1027.8 mb 0.00 in0.0 mm 0.00 in0.0 mm 0.00 in0.0 mm
07:19 AM 52.7°F11.5°C 79.6°F26.4°C - 4.1 mph SW6.6 kmh SW 4.7 mph7.6 kmh 30.35 in1027.8 mb 0.00 in0.0 mm 0.00 in0.0 mm 0.00 in0.0 mm
07:14 AM 52.7°F11.5°C 79.7°F26.5°C - 2.8 mph SW4.5 kmh SW 3.4 mph5.5 kmh 30.35 in1027.8 mb 0.00 in0.0 mm 0.00 in0.0 mm 0.00 in0.0 mm
07:09 AM 52.4°F11.3°C 79.3°F26.3°C - 3.2 mph SW5.1 kmh SW 3.7 mph6.0 kmh 30.35 in1027.8 mb 0.00 in0.0 mm 0.00 in0.0 mm 0.00 in0.0 mm
07:04 AM 52.1°F11.2°C 78.9°F26.1°C - 3.4 mph SW5.5 kmh SW 3.9 mph6.3 kmh 30.34 in1027.4 mb 0.00 in0.0 mm 0.00 in0.0 mm 0.00 in0.0 mm
06:59 AM 51.8°F11.0°C 78.7°F25.9°C - 3.8 mph SW6.1 kmh SW 4.3 mph6.9 kmh 30.34 in1027.4 mb 0.00 in0.0 mm 0.00 in0.0 mm 0.00 in0.0 mm
06:54 AM 51.6°F10.9°C 78.4°F25.8°C - 3.3 mph SW5.3 kmh SW 3.8 mph6.1 kmh 30.34 in1027.4 mb 0.00 in0.0 mm 0.00 in0.0 mm 0.00 in0.0 mm
06:49 AM 51.3°F10.7°C 78.2°F25.7°C - 2.9 mph SSW4.7 kmh SSW 3.4 mph5.5 kmh 30.34 in1027.4 mb 0.00 in0.0 mm 0.00 in0.0 mm 0.00 in0.0 mm
06:44 AM 51.2°F10.7°C 78.0°F25.6°C - 2.7 mph SSW4.3 kmh SSW 3.3 mph5.3 kmh 30.34 in1027.4 mb 0.00 in0.0 mm 0.00 in0.0 mm 0.00 in0.0 mm
06:39 AM 51.4°F10.8°C 78.3°F25.7°C - 2.9 mph SSW4.7 kmh SSW 3.4 mph5.5 kmh 30.34 in1027.4 mb 0.00 in0.0 mm 0.00 in0.0 mm 0.00 in0.0 mm
06:34 AM 51.7°F10.9°C 78.6°F25.9°C - 2.9 mph SSW4.7 kmh SSW 3.5 mph5.6 kmh 30.34 in1027.4 mb 0.00 in0.0 mm 0.00 in0.0 mm 0.00 in0.0 mm
06:29 AM 51.7°F10.9°C 78.6°F25.9°C - 3.5 mph SSW5.6 kmh SSW 3.8 mph6.1 kmh 30.34 in1027.4 mb 0.00 in0.0 mm 0.00 in0.0 mm 0.00 in0.0 mm
06:24 AM 51.7°F10.9°C 78.6°F25.9°C - 3.8 mph SSW6.1 kmh SSW 4.2 mph6.8 kmh 30.33 in1027.1 mb 0.00 in0.0 mm 0.00 in0.0 mm 0.00 in0.0 mm
06:19 AM 51.8°F11.0°C 78.6°F25.9°C - 3.0 mph SSW4.8 kmh SSW 3.3 mph5.3 kmh 30.34 in1027.4 mb 0.00 in0.0 mm 0.00 in0.0 mm 0.00 in0.0 mm
06:14 AM 51.8°F11.0°C 78.7°F25.9°C - 2.8 mph SSW4.5 kmh SSW 3.0 mph4.8 kmh 30.33 in1027.1 mb 0.00 in0.0 mm 0.00 in0.0 mm 0.00 in0.0 mm
06:09 AM 51.9°F11.1°C 78.8°F26.0°C - 3.2 mph SSW5.1 kmh SSW 3.5 mph5.6 kmh 30.33 in1027.1 mb 0.00 in0.0 mm 0.00 in0.0 mm 0.00 in0.0 mm
06:04 AM 52.0°F11.1°C 78.9°F26.1°C - 3.0 mph SW4.8 kmh SW 3.3 mph5.3 kmh 30.33 in1027.1 mb 0.00 in0.0 mm 0.00 in0.0 mm 0.00 in0.0 mm
05:59 AM 51.8°F11.0°C 78.6°F25.9°C - 2.9 mph SW4.7 kmh SW 3.2 mph5.1 kmh 30.33 in1027.1 mb 0.00 in0.0 mm 0.00 in0.0 mm 0.00 in0.0 mm
05:54 AM 52.0°F11.1°C 78.9°F26.1°C - 2.0 mph SW3.2 kmh SW 2.4 mph3.9 kmh 30.33 in1027.1 mb 0.00 in0.0 mm 0.00 in0.0 mm 0.00 in0.0 mm
05:49 AM 52.1°F11.2°C 79.0°F26.1°C - 2.4 mph SW3.9 kmh SW 2.8 mph4.5 kmh 30.33 in1027.1 mb 0.00 in0.0 mm 0.00 in0.0 mm 0.00 in0.0 mm
05:44 AM 52.1°F11.2°C 78.9°F26.1°C - 3.5 mph SW5.6 kmh SW 4.0 mph6.4 kmh 30.33 in1027.1 mb 0.00 in0.0 mm 0.00 in0.0 mm 0.00 in0.0 mm
05:39 AM 51.8°F11.0°C 78.7°F25.9°C - 3.1 mph SW5.0 kmh SW 3.6 mph5.8 kmh 30.33 in1027.1 mb 0.00 in0.0 mm 0.00 in0.0 mm 0.00 in0.0 mm
05:34 AM 51.4°F10.8°C 78.3°F25.7°C - 2.0 mph SW3.2 kmh SW 2.3 mph3.7 kmh 30.33 in1027.1 mb 0.00 in0.0 mm 0.00 in0.0 mm 0.00 in0.0 mm
05:29 AM 51.3°F10.7°C 78.0°F25.6°C - 1.7 mph SW2.7 kmh SW 2.2 mph3.5 kmh 30.33 in1027.1 mb 0.00 in0.0 mm 0.00 in0.0 mm 0.00 in0.0 mm
05:24 AM 51.6°F10.9°C 78.5°F25.8°C - 1.8 mph SW2.9 kmh SW 2.1 mph3.4 kmh 30.33 in1027.1 mb 0.00 in0.0 mm 0.00 in0.0 mm 0.00 in0.0 mm
05:19 AM 51.8°F11.0°C 78.6°F25.9°C - 2.7 mph SW4.3 kmh SW 3.0 mph4.8 kmh 30.33 in1027.1 mb 0.00 in0.0 mm 0.00 in0.0 mm 0.00 in0.0 mm
05:14 AM 51.8°F11.0°C 78.7°F25.9°C - 2.5 mph SW4.0 kmh SW 2.7 mph4.3 kmh 30.33 in1027.1 mb 0.00 in0.0 mm 0.00 in0.0 mm 0.00 in0.0 mm
05:09 AM 51.7°F10.9°C 78.6°F25.9°C - 2.2 mph SW3.5 kmh SW 2.5 mph4.0 kmh 30.33 in1027.1 mb 0.00 in0.0 mm 0.00 in0.0 mm 0.00 in0.0 mm
05:04 AM 51.7°F10.9°C 78.6°F25.9°C - 2.2 mph SW3.5 kmh SW 2.5 mph4.0 kmh 30.33 in1027.1 mb 0.00 in0.0 mm 0.00 in0.0 mm 0.00 in0.0 mm
04:59 AM 51.8°F11.0°C 78.7°F25.9°C - 2.7 mph SW4.3 kmh SW 3.0 mph4.8 kmh 30.33 in1027.1 mb 0.00 in0.0 mm 0.00 in0.0 mm 0.00 in0.0 mm
04:54 AM 51.8°F11.0°C 78.6°F25.9°C - 3.3 mph SW5.3 kmh SW 3.9 mph6.3 kmh 30.33 in1027.1 mb 0.00 in0.0 mm 0.00 in0.0 mm 0.00 in0.0 mm
04:49 AM 51.7°F10.9°C 78.6°F25.9°C - 3.1 mph SW5.0 kmh SW 3.8 mph6.1 kmh 30.33 in1027.1 mb 0.00 in0.0 mm 0.00 in0.0 mm 0.00 in0.0 mm
04:44 AM 51.7°F10.9°C 78.6°F25.9°C - 3.8 mph SW6.1 kmh SW 4.4 mph7.1 kmh 30.33 in1027.1 mb 0.00 in0.0 mm 0.00 in0.0 mm 0.00 in0.0 mm
04:39 AM 51.7°F10.9°C 78.5°F25.8°C - 3.9 mph SW6.3 kmh SW 4.4 mph7.1 kmh 30.33 in1027.1 mb 0.00 in0.0 mm 0.00 in0.0 mm 0.00 in0.0 mm
04:34 AM 51.7°F10.9°C 78.6°F25.9°C - 4.3 mph SW6.9 kmh SW 4.8 mph7.7 kmh 30.33 in1027.1 mb 0.00 in0.0 mm 0.00 in0.0 mm 0.00 in0.0 mm
04:29 AM 51.7°F10.9°C 78.6°F25.9°C - 4.3 mph SW6.9 kmh SW 4.9 mph7.9 kmh 30.33 in1027.1 mb 0.00 in0.0 mm 0.00 in0.0 mm 0.00 in0.0 mm
04:24 AM 51.7°F10.9°C 78.6°F25.9°C - 4.1 mph WSW6.6 kmh WSW 4.7 mph7.6 kmh 30.33 in1027.1 mb 0.00 in0.0 mm 0.00 in0.0 mm 0.00 in0.0 mm
04:19 AM 51.7°F10.9°C 78.6°F25.9°C - 4.2 mph WSW6.8 kmh WSW 4.8 mph7.7 kmh 30.33 in1027.1 mb 0.00 in0.0 mm 0.00 in0.0 mm 0.00 in0.0 mm
04:14 AM 51.7°F10.9°C 78.6°F25.9°C - 3.5 mph SW5.6 kmh SW 4.2 mph6.8 kmh 30.33 in1027.1 mb 0.00 in0.0 mm 0.00 in0.0 mm 0.00 in0.0 mm
04:10 AM 51.6°F10.9°C 78.5°F25.8°C - 3.1 mph SW5.0 kmh SW 3.8 mph6.1 kmh 30.33 in1027.1 mb 0.00 in0.0 mm 0.00 in0.0 mm 0.00 in0.0 mm
04:04 AM 51.6°F10.9°C 78.5°F25.8°C - 3.3 mph SW5.3 kmh SW 3.9 mph6.3 kmh 30.33 in1027.1 mb 0.00 in0.0 mm 0.00 in0.0 mm 0.00 in0.0 mm
03:59 AM 51.7°F10.9°C 78.5°F25.8°C - 3.4 mph SW5.5 kmh SW 4.0 mph6.4 kmh 30.33 in1027.1 mb 0.00 in0.0 mm 0.00 in0.0 mm 0.00 in0.0 mm
03:54 AM 51.6°F10.9°C 78.4°F25.8°C - 3.8 mph SW6.1 kmh SW 4.3 mph6.9 kmh 30.33 in1027.1 mb 0.00 in0.0 mm 0.00 in0.0 mm 0.00 in0.0 mm
03:49 AM 51.5°F10.8°C 78.4°F25.8°C - 3.3 mph SW5.3 kmh SW 3.9 mph6.3 kmh 30.33 in1027.1 mb 0.00 in0.0 mm 0.00 in0.0 mm 0.00 in0.0 mm
03:44 AM 51.7°F10.9°C 78.6°F25.9°C - 2.8 mph SSW4.5 kmh SSW 3.2 mph5.1 kmh 30.33 in1027.1 mb 0.00 in0.0 mm 0.00 in0.0 mm 0.00 in0.0 mm
03:39 AM 52.1°F11.2°C 79.0°F26.1°C - 3.3 mph SSW5.3 kmh SSW 3.9 mph6.3 kmh 30.33 in1027.1 mb 0.00 in0.0 mm 0.00 in0.0 mm 0.00 in0.0 mm
03:34 AM 52.3°F11.3°C 79.3°F26.3°C - 4.2 mph SSW6.8 kmh SSW 4.5 mph7.2 kmh 30.33 in1027.1 mb 0.00 in0.0 mm 0.00 in0.0 mm 0.00 in0.0 mm
03:29 AM 52.3°F11.3°C 79.2°F26.2°C - 3.4 mph SSW5.5 kmh SSW 3.7 mph6.0 kmh 30.33 in1027.1 mb 0.00 in0.0 mm 0.00 in0.0 mm 0.00 in0.0 mm
03:24 AM 52.3°F11.3°C 79.2°F26.2°C - 2.9 mph SSW4.7 kmh SSW 3.1 mph5.0 kmh 30.33 in1027.1 mb 0.00 in0.0 mm 0.00 in0.0 mm 0.00 in0.0 mm
03:19 AM 52.6°F11.4°C 79.6°F26.4°C - 2.7 mph SSW4.3 kmh SSW 2.9 mph4.7 kmh 30.33 in1027.1 mb 0.00 in0.0 mm 0.00 in0.0 mm 0.00 in0.0 mm
03:14 AM 52.8°F11.6°C 79.8°F26.6°C - 2.5 mph WSW4.0 kmh WSW 2.8 mph4.5 kmh 30.33 in1027.1 mb 0.00 in0.0 mm 0.00 in0.0 mm 0.00 in0.0 mm
03:09 AM 52.8°F11.6°C 79.7°F26.5°C - 3.3 mph WSW5.3 kmh WSW 3.6 mph5.8 kmh 30.33 in1027.1 mb 0.00 in0.0 mm 0.00 in0.0 mm 0.00 in0.0 mm
03:04 AM 52.7°F11.5°C 79.7°F26.5°C - 2.9 mph WSW4.7 kmh WSW 3.3 mph5.3 kmh 30.33 in1027.1 mb 0.00 in0.0 mm 0.00 in0.0 mm 0.00 in0.0 mm
02:59 AM 52.7°F11.5°C 79.7°F26.5°C - 2.7 mph WSW4.3 kmh WSW 3.2 mph5.1 kmh 30.33 in1027.1 mb 0.00 in0.0 mm 0.00 in0.0 mm 0.00 in0.0 mm
02:54 AM 52.7°F11.5°C 79.7°F26.5°C - 3.2 mph WSW5.1 kmh WSW 3.9 mph6.3 kmh 30.33 in1027.1 mb 0.00 in0.0 mm 0.00 in0.0 mm 0.00 in0.0 mm
02:49 AM 52.7°F11.5°C 79.7°F26.5°C - 2.7 mph SW4.3 kmh SW 3.3 mph5.3 kmh 30.33 in1027.1 mb 0.00 in0.0 mm 0.00 in0.0 mm 0.00 in0.0 mm
02:44 AM 52.8°F11.6°C 79.7°F26.5°C - 2.4 mph SW3.9 kmh SW 3.0 mph4.8 kmh 30.33 in1027.1 mb 0.00 in0.0 mm 0.00 in0.0 mm 0.00 in0.0 mm
02:39 AM 53.0°F11.7°C 79.9°F26.6°C - 2.4 mph SW3.9 kmh SW 2.9 mph4.7 kmh 30.33 in1027.1 mb 0.00 in0.0 mm 0.00 in0.0 mm 0.00 in0.0 mm
02:34 AM 53.2°F11.8°C 80.3°F26.8°C - 2.9 mph SW4.7 kmh SW 3.3 mph5.3 kmh 30.33 in1027.1 mb 0.00 in0.0 mm 0.00 in0.0 mm 0.00 in0.0 mm
02:29 AM 53.0°F11.7°C 80.1°F26.7°C - 2.8 mph SW4.5 kmh SW 3.2 mph5.1 kmh 30.33 in1027.1 mb 0.00 in0.0 mm 0.00 in0.0 mm 0.00 in0.0 mm
02:24 AM 52.7°F11.5°C 79.6°F26.4°C - 2.0 mph SW3.2 kmh SW 2.3 mph3.7 kmh 30.33 in1027.1 mb 0.00 in0.0 mm 0.00 in0.0 mm 0.00 in0.0 mm
02:19 AM 52.7°F11.5°C 79.6°F26.4°C - 2.1 mph SW3.4 kmh SW 2.3 mph3.7 kmh 30.33 in1027.1 mb 0.00 in0.0 mm 0.00 in0.0 mm 0.00 in0.0 mm
02:14 AM 52.7°F11.5°C 79.6°F26.4°C - 1.7 mph SW2.7 kmh SW 2.0 mph3.2 kmh 30.33 in1027.1 mb 0.00 in0.0 mm 0.00 in0.0 mm 0.00 in0.0 mm
02:09 AM 52.6°F11.4°C 79.5°F26.4°C - 1.5 mph SW2.4 kmh SW 1.9 mph3.1 kmh 30.33 in1027.1 mb 0.00 in0.0 mm 0.00 in0.0 mm 0.00 in0.0 mm
02:04 AM 52.3°F11.3°C 79.3°F26.3°C - 2.0 mph SW3.2 kmh SW 2.4 mph3.9 kmh 30.33 in1027.1 mb 0.00 in0.0 mm 0.00 in0.0 mm 0.00 in0.0 mm
01:59 AM 52.3°F11.3°C 79.3°F26.3°C - 1.3 mph SW2.1 kmh SW 1.7 mph2.7 kmh 30.33 in1027.1 mb 0.00 in0.0 mm 0.00 in0.0 mm 0.00 in0.0 mm
01:54 AM 52.5°F11.4°C 79.5°F26.4°C - 1.7 mph SW2.7 kmh SW 2.0 mph3.2 kmh 30.33 in1027.1 mb 0.00 in0.0 mm 0.00 in0.0 mm 0.00 in0.0 mm
01:49 AM 52.7°F11.5°C 79.7°F26.5°C - 0.1 mph SW0.2 kmh SW 0.5 mph0.8 kmh 30.33 in1027.1 mb 0.00 in0.0 mm 0.00 in0.0 mm 0.00 in0.0 mm
01:44 AM 52.8°F11.6°C 79.8°F26.6°C - Calm Calm -- 30.33 in1027.1 mb 0.00 in0.0 mm 0.00 in0.0 mm 0.00 in0.0 mm
01:39 AM 53.0°F11.7°C 79.9°F26.6°C - 0.7 mph WNW1.1 kmh WNW 1.2 mph1.9 kmh 30.33 in1027.1 mb 0.00 in0.0 mm 0.00 in0.0 mm 0.00 in0.0 mm
01:34 AM 53.2°F11.8°C 80.3°F26.8°C - 1.9 mph WNW3.1 kmh WNW 2.2 mph3.5 kmh 30.33 in1027.1 mb 0.00 in0.0 mm 0.00 in0.0 mm 0.00 in0.0 mm
01:30 AM 53.2°F11.8°C 80.2°F26.8°C - 2.6 mph WNW4.2 kmh WNW 2.9 mph4.7 kmh 30.33 in1027.1 mb 0.00 in0.0 mm 0.00 in0.0 mm 0.00 in0.0 mm
01:24 AM 53.2°F11.8°C 80.3°F26.8°C - 1.8 mph WNW2.9 kmh WNW 2.1 mph3.4 kmh 30.33 in1027.1 mb 0.00 in0.0 mm 0.00 in0.0 mm 0.00 in0.0 mm
01:19 AM 53.1°F11.7°C 80.2°F26.8°C - 1.8 mph WNW2.9 kmh WNW 2.2 mph3.5 kmh 30.33 in1027.1 mb 0.00 in0.0 mm 0.00 in0.0 mm 0.00 in0.0 mm
01:14 AM 53.1°F11.7°C 80.1°F26.7°C - 1.4 mph WNW2.3 kmh WNW 1.8 mph2.9 kmh 30.33 in1027.1 mb 0.00 in0.0 mm 0.00 in0.0 mm 0.00 in0.0 mm
01:09 AM 53.2°F11.8°C 80.3°F26.8°C - 1.2 mph WNW1.9 kmh WNW 1.6 mph2.6 kmh 30.33 in1027.1 mb 0.00 in0.0 mm 0.00 in0.0 mm 0.00 in0.0 mm
01:04 AM 53.4°F11.9°C 80.4°F26.9°C - 0.3 mph WNW0.5 kmh WNW 0.9 mph1.4 kmh 30.33 in1027.1 mb 0.00 in0.0 mm 0.00 in0.0 mm 0.00 in0.0 mm
12:59 AM 53.6°F12.0°C 80.7°F27.1°C - 0.9 mph WNW1.4 kmh WNW 1.6 mph2.6 kmh 30.33 in1027.1 mb 0.00 in0.0 mm 0.00 in0.0 mm 0.00 in0.0 mm
12:54 AM 53.7°F12.1°C 80.8°F27.1°C - 1.7 mph WNW2.7 kmh WNW 2.1 mph3.4 kmh 30.32 in1026.8 mb 0.00 in0.0 mm 0.00 in0.0 mm 0.00 in0.0 mm
12:49 AM 53.9°F12.2°C 81.1°F27.3°C - 2.1 mph WNW3.4 kmh WNW 2.3 mph3.7 kmh 30.32 in1026.8 mb 0.00 in0.0 mm 0.00 in0.0 mm 0.00 in0.0 mm
12:44 AM 54.1°F12.3°C 81.3°F27.4°C - 2.8 mph WNW4.5 kmh WNW 3.1 mph5.0 kmh 30.32 in1026.8 mb 0.00 in0.0 mm 0.00 in0.0 mm 0.00 in0.0 mm
12:39 AM 54.2°F12.3°C 81.3°F27.4°C - 2.9 mph WNW4.7 kmh WNW 3.2 mph5.1 kmh 30.32 in1026.8 mb 0.00 in0.0 mm 0.00 in0.0 mm 0.00 in0.0 mm
12:34 AM 54.3°F12.4°C 81.4°F27.4°C - 2.6 mph WNW4.2 kmh WNW 2.9 mph4.7 kmh 30.32 in1026.8 mb 0.00 in0.0 mm 0.00 in0.0 mm 0.00 in0.0 mm
12:29 AM 54.2°F12.3°C 81.3°F27.4°C - 2.7 mph WNW4.3 kmh WNW 2.9 mph4.7 kmh 30.32 in1026.8 mb 0.00 in0.0 mm 0.00 in0.0 mm 0.00 in0.0 mm
12:24 AM 54.3°F12.4°C 81.5°F27.5°C - 2.6 mph WNW4.2 kmh WNW 3.0 mph4.8 kmh 30.32 in1026.8 mb 0.00 in0.0 mm 0.00 in0.0 mm 0.00 in0.0 mm
12:19 AM 54.4°F12.4°C 81.6°F27.6°C - 2.6 mph WNW4.2 kmh WNW 2.9 mph4.7 kmh 30.32 in1026.8 mb 0.00 in0.0 mm 0.00 in0.0 mm 0.00 in0.0 mm
12:14 AM 54.2°F12.3°C 81.3°F27.4°C - 2.1 mph WNW3.4 kmh WNW 2.4 mph3.9 kmh 30.32 in1026.8 mb 0.00 in0.0 mm 0.00 in0.0 mm 0.00 in0.0 mm
12:09 AM 54.2°F12.3°C 81.4°F27.4°C - 0.6 mph WNW1.0 kmh WNW 1.5 mph2.4 kmh 30.32 in1026.8 mb 0.00 in0.0 mm 0.00 in0.0 mm 0.00 in0.0 mm
12:04 AM 54.2°F12.3°C 81.4°F27.4°C - 0.2 mph WNW0.3 kmh WNW 1.1 mph1.8 kmh 30.32 in1026.8 mb 0.00 in0.0 mm 0.00 in0.0 mm 0.00 in0.0 mm